createdAt,value
2023-05-12T00:00:10.888Z,98.93
2023-05-12T00:01:10.812Z,99.14
2023-05-12T00:02:10.820Z,99.08
2023-05-12T00:03:10.850Z,99.69
2023-05-12T00:04:11.003Z,99.59
2023-05-12T00:05:10.818Z,99.99
2023-05-12T00:06:10.823Z,99.69
2023-05-12T00:07:10.850Z,99.79
2023-05-12T00:08:10.802Z,99.99
2023-05-12T00:09:10.761Z,99.99
2023-05-12T00:10:10.777Z,99.99
2023-05-12T00:11:10.798Z,99.99
2023-05-12T00:12:10.729Z,99.99
2023-05-12T00:13:10.774Z,99.99
2023-05-12T00:14:10.715Z,99.99
2023-05-12T00:15:10.733Z,99.99
2023-05-12T00:16:10.754Z,99.99
2023-05-12T00:17:10.758Z,99.99
2023-05-12T00:18:10.688Z,99.99
2023-05-12T00:19:10.747Z,99.99
2023-05-12T00:20:10.675Z,99.99
2023-05-12T00:21:10.698Z,99.99
2023-05-12T00:22:10.728Z,99.99
2023-05-12T00:23:10.699Z,99.99
2023-05-12T00:24:10.650Z,99.99
2023-05-12T00:25:10.662Z,99.99
2023-05-12T00:26:10.666Z,99.99
2023-05-12T00:27:10.665Z,99.99
2023-05-12T00:28:10.636Z,99.99
2023-05-12T00:29:10.606Z,99.99
2023-05-12T00:30:10.601Z,99.99
2023-05-12T00:31:10.683Z,99.99
2023-05-12T00:32:10.630Z,99.99
2023-05-12T00:33:10.616Z,99.99
2023-05-12T00:34:10.620Z,99.99
2023-05-12T00:35:10.573Z,99.99
2023-05-12T00:36:10.555Z,99.99
2023-05-12T00:37:10.544Z,99.99
2023-05-12T00:38:10.569Z,99.99
2023-05-12T00:39:10.556Z,99.99
2023-05-12T00:40:10.507Z,99.99
2023-05-12T00:41:10.523Z,99.99
2023-05-12T00:42:10.508Z,99.99
2023-05-12T00:43:10.529Z,99.99
2023-05-12T00:44:10.539Z,99.99
2023-05-12T00:45:10.483Z,99.99
2023-05-12T00:46:10.513Z,99.99
2023-05-12T00:47:10.459Z,99.99
2023-05-12T00:48:10.564Z,99.99
2023-05-12T00:49:10.476Z,99.99
2023-05-12T00:50:10.445Z,99.99
2023-05-12T00:51:10.453Z,99.99
2023-05-12T00:52:10.434Z,99.99
2023-05-12T00:53:10.427Z,99.99
2023-05-12T00:54:10.464Z,99.99
2023-05-12T00:55:10.416Z,99.99
2023-05-12T00:56:10.405Z,99.99
2023-05-12T00:57:10.417Z,99.99
2023-05-12T00:58:10.374Z,99.99
2023-05-12T00:59:10.429Z,99.99
2023-05-12T01:00:10.376Z,99.99
2023-05-12T01:01:10.427Z,99.99
2023-05-12T01:02:10.383Z,99.99
2023-05-12T01:03:10.452Z,99.99
2023-05-12T01:04:10.409Z,99.99
2023-05-12T01:05:10.343Z,99.99
2023-05-12T01:06:10.320Z,99.99
2023-05-12T01:07:10.325Z,99.99
2023-05-12T01:08:10.315Z,99.99
2023-05-12T01:09:10.351Z,99.99
2023-05-12T01:10:10.340Z,99.99
2023-05-12T01:11:10.316Z,99.99
2023-05-12T01:12:10.272Z,99.99
2023-05-12T01:13:42.984Z,99.99
2023-05-12T01:14:42.221Z,99.99
2023-05-12T01:15:10.271Z,99.99
2023-05-12T01:16:10.262Z,99.99
2023-05-12T01:17:10.272Z,99.99
2023-05-12T01:18:10.254Z,99.99
2023-05-12T01:19:10.282Z,99.99
2023-05-12T01:20:11.225Z,99.99
2023-05-12T01:21:11.101Z,99.99
2023-05-12T01:22:10.208Z,99.99
2023-05-12T01:23:10.229Z,99.99
2023-05-12T01:24:10.191Z,99.99
2023-05-12T01:25:10.195Z,99.99
2023-05-12T01:26:10.154Z,99.99
2023-05-12T01:27:10.213Z,99.99
2023-05-12T01:28:10.159Z,99.99
2023-05-12T01:29:10.149Z,99.99
2023-05-12T01:30:10.132Z,99.99
2023-05-12T01:31:10.200Z,99.99
2023-05-12T01:32:10.147Z,99.99
2023-05-12T01:33:10.126Z,99.99
2023-05-12T01:34:10.102Z,99.99
2023-05-12T01:35:10.125Z,99.99
2023-05-12T01:36:10.097Z,99.99
2023-05-12T01:37:10.110Z,99.99
2023-05-12T01:38:10.109Z,99.99
2023-05-12T01:39:10.057Z,99.99
2023-05-12T01:40:10.081Z,99.99
2023-05-12T01:41:10.055Z,99.99
2023-05-12T01:42:10.036Z,99.99
2023-05-12T01:43:10.081Z,99.99
2023-05-12T01:44:10.033Z,99.99
2023-05-12T01:45:10.044Z,99.99
2023-05-12T01:46:10.020Z,99.99
2023-05-12T01:47:10.065Z,99.99
2023-05-12T01:48:10.037Z,99.99
2023-05-12T01:49:10.007Z,99.99
2023-05-12T01:50:09.990Z,99.99
2023-05-12T01:51:09.980Z,99.99
2023-05-12T01:52:09.950Z,99.99
2023-05-12T01:53:09.972Z,99.99
2023-05-12T01:54:09.973Z,99.99
2023-05-12T01:55:09.982Z,99.99
2023-05-12T01:56:09.922Z,99.99
2023-05-12T01:57:09.934Z,99.99
2023-05-12T01:58:09.896Z,99.99
2023-05-12T01:59:10.003Z,99.99
2023-05-12T02:00:09.918Z,99.99
2023-05-12T02:01:09.884Z,99.99
2023-05-12T02:02:09.947Z,99.99
2023-05-12T02:03:10.061Z,99.99
2023-05-12T02:04:09.933Z,99.99
2023-05-12T02:05:11.443Z,99.99
2023-05-12T02:06:09.866Z,99.99
2023-05-12T02:07:09.901Z,99.99
2023-05-12T02:08:09.842Z,99.99
2023-05-12T02:09:09.838Z,99.99
2023-05-12T02:10:09.839Z,99.99
2023-05-12T02:11:09.793Z,99.99
2023-05-12T02:12:09.800Z,99.99
2023-05-12T02:13:09.817Z,99.99
2023-05-12T02:14:09.815Z,99.99
2023-05-12T02:15:09.819Z,99.99
2023-05-12T02:16:09.822Z,99.99
2023-05-12T02:17:09.773Z,99.99
2023-05-12T02:18:09.877Z,99.99
2023-05-12T02:19:09.851Z,99.99
2023-05-12T02:20:10.728Z,99.99
2023-05-12T02:21:09.731Z,99.99
2023-05-12T02:22:09.731Z,99.99
2023-05-12T02:23:09.734Z,99.99
2023-05-12T02:24:09.739Z,99.99
2023-05-12T02:25:09.746Z,99.99
2023-05-12T02:26:09.711Z,99.99
2023-05-12T02:27:09.709Z,99.99
2023-05-12T02:28:09.669Z,99.99
2023-05-12T02:29:09.667Z,99.99
2023-05-12T02:30:09.700Z,99.99
2023-05-12T02:31:09.662Z,99.99
2023-05-12T02:32:09.761Z,99.99
2023-05-12T02:33:09.681Z,99.99
2023-05-12T02:34:09.648Z,99.99
2023-05-12T02:35:09.699Z,99.99
2023-05-12T02:36:09.637Z,99.99
2023-05-12T02:37:09.647Z,99.99
2023-05-12T02:38:09.613Z,99.99
2023-05-12T02:39:09.588Z,99.99
2023-05-12T02:40:09.647Z,99.99
2023-05-12T02:41:09.607Z,99.99
2023-05-12T02:42:09.596Z,99.99
2023-05-12T02:43:09.557Z,99.99
2023-05-12T02:44:09.554Z,99.99
2023-05-12T02:45:09.586Z,99.99
2023-05-12T02:46:09.650Z,99.99
2023-05-12T02:47:09.532Z,99.99
2023-05-12T02:48:09.736Z,99.99
2023-05-12T02:49:09.537Z,99.99
2023-05-12T02:50:09.524Z,99.99
2023-05-12T02:51:09.549Z,99.99
2023-05-12T02:52:09.551Z,99.99
2023-05-12T02:53:09.499Z,99.99
2023-05-12T02:54:09.488Z,99.99
2023-05-12T02:55:09.477Z,99.99
2023-05-12T02:56:09.522Z,99.99
2023-05-12T02:57:09.469Z,99.99
2023-05-12T02:58:09.471Z,99.99
2023-05-12T02:59:09.455Z,99.99
2023-05-12T03:00:09.442Z,99.99
2023-05-12T03:01:11.447Z,99.99
2023-05-12T03:02:10.635Z,99.99
2023-05-12T03:03:09.558Z,99.99
2023-05-12T03:04:09.464Z,99.99
2023-05-12T03:05:09.431Z,99.99
2023-05-12T03:06:09.432Z,99.99
2023-05-12T03:07:09.378Z,99.99
2023-05-12T03:08:09.397Z,99.99
2023-05-12T03:09:09.385Z,99.99
2023-05-12T03:10:09.410Z,99.99
2023-05-12T03:11:09.391Z,99.99
2023-05-12T03:12:09.347Z,99.99
2023-05-12T03:13:09.357Z,99.99
2023-05-12T03:14:09.324Z,99.99
2023-05-12T03:15:09.328Z,99.99
2023-05-12T03:16:09.340Z,99.99
2023-05-12T03:17:09.406Z,99.99
2023-05-12T03:18:09.331Z,99.99
2023-05-12T03:19:09.489Z,99.99
2023-05-12T03:20:09.339Z,99.99
2023-05-12T03:21:09.285Z,99.99
2023-05-12T03:22:09.306Z,99.99
2023-05-12T03:23:09.279Z,99.99
2023-05-12T03:24:09.313Z,99.99
2023-05-12T03:25:09.247Z,99.99
2023-05-12T03:26:09.242Z,99.99
2023-05-12T03:27:09.244Z,99.99
2023-05-12T03:28:09.259Z,99.99
2023-05-12T03:29:09.254Z,99.99
2023-05-12T03:30:09.251Z,99.99
2023-05-12T03:31:09.255Z,99.99
2023-05-12T03:32:09.187Z,99.99
2023-05-12T03:33:09.189Z,99.99
2023-05-12T03:34:09.188Z,99.99
2023-05-12T03:35:09.173Z,99.99
2023-05-12T03:36:09.181Z,99.99
2023-05-12T03:37:09.150Z,99.99
2023-05-12T03:38:09.183Z,99.99
2023-05-12T03:39:10.161Z,99.99
2023-05-12T03:40:09.155Z,99.99
2023-05-12T03:41:09.185Z,99.99
2023-05-12T03:42:09.148Z,99.99
2023-05-12T03:43:09.123Z,99.99
2023-05-12T03:44:09.103Z,99.99
2023-05-12T03:45:09.094Z,99.99
2023-05-12T03:46:09.157Z,99.99
2023-05-12T03:47:09.253Z,99.99
2023-05-12T04:03:13.131Z,99.99
2023-05-12T04:04:13.154Z,99.99
2023-05-12T04:05:14.248Z,99.99
2023-05-12T04:06:14.206Z,99.99
2023-05-12T04:07:14.207Z,99.99
2023-05-12T04:08:14.224Z,99.99
2023-05-12T04:09:14.257Z,99.99
2023-05-12T04:10:14.192Z,99.99
2023-05-12T04:11:14.172Z,99.99
2023-05-12T04:12:14.811Z,99.99
2023-05-12T04:13:14.147Z,99.99
2023-05-12T04:14:14.194Z,99.99
2023-05-12T04:15:14.136Z,99.99
2023-05-12T04:16:14.236Z,99.99
2023-05-12T04:17:14.116Z,99.99
2023-05-12T04:18:14.130Z,99.99
2023-05-12T04:19:14.154Z,99.99
2023-05-12T04:20:14.097Z,99.99
2023-05-12T04:21:14.784Z,99.99
2023-05-12T04:22:14.122Z,99.99
2023-05-12T04:23:15.148Z,99.99
2023-05-12T04:24:15.226Z,99.99
2023-05-12T04:25:15.387Z,99.99
2023-05-12T04:26:15.785Z,99.99
2023-05-12T04:27:15.036Z,99.99
2023-05-12T04:28:14.118Z,99.99
2023-05-12T04:29:14.099Z,99.99
2023-05-12T04:30:14.089Z,99.99
2023-05-12T04:31:14.095Z,99.99
2023-05-12T04:32:14.162Z,99.99
2023-05-12T04:33:14.044Z,99.99
2023-05-12T04:34:13.991Z,99.99
2023-05-12T04:35:14.022Z,99.99
2023-05-12T04:36:14.015Z,99.99
2023-05-12T04:37:14.106Z,99.99
2023-05-12T04:38:14.065Z,99.99
2023-05-12T04:39:13.962Z,99.99
2023-05-12T04:40:13.987Z,99.99
2023-05-12T04:41:13.979Z,99.99
2023-05-12T04:42:13.979Z,99.99
2023-05-12T04:44:14.939Z,99.99
2023-05-12T04:45:13.924Z,99.99
2023-05-12T04:46:13.943Z,99.99
2023-05-12T04:47:13.914Z,99.99
2023-05-12T04:48:13.882Z,99.99
2023-05-12T04:49:14.694Z,99.99
2023-05-12T04:50:14.882Z,99.99
2023-05-12T04:51:13.900Z,99.99
2023-05-12T04:52:13.939Z,99.99
2023-05-12T04:53:13.860Z,99.99
2023-05-12T04:54:13.872Z,99.99
2023-05-12T04:55:13.830Z,99.99
2023-05-12T04:56:13.829Z,99.99
2023-05-12T04:57:13.839Z,99.99
2023-05-12T04:58:13.866Z,99.99
2023-05-12T04:59:13.886Z,99.99
2023-05-12T05:00:13.800Z,99.99
2023-05-12T05:01:14.361Z,99.99
2023-05-12T05:02:13.831Z,99.99
2023-05-12T05:03:13.863Z,99.99
2023-05-12T05:04:13.786Z,99.99
2023-05-12T05:05:13.800Z,99.99
2023-05-12T05:06:13.748Z,99.99
2023-05-12T05:07:13.744Z,99.99
2023-05-12T05:08:13.752Z,99.99
2023-05-12T05:09:13.755Z,99.99
2023-05-12T05:10:13.726Z,99.99
2023-05-12T05:11:14.375Z,99.99
2023-05-12T05:12:13.729Z,99.99
2023-05-12T05:13:13.708Z,99.99
2023-05-12T05:14:13.716Z,99.99
2023-05-12T05:15:13.712Z,99.99
2023-05-12T05:16:13.682Z,99.99
2023-05-12T05:17:13.713Z,99.99
2023-05-12T05:18:13.707Z,99.99
2023-05-12T05:19:21.215Z,99.99
2023-05-12T05:20:15.773Z,99.99
2023-05-12T05:21:14.713Z,99.99
2023-05-12T05:22:13.645Z,99.99
2023-05-12T05:23:13.605Z,99.99
2023-05-12T05:24:13.611Z,99.99
2023-05-12T05:25:13.627Z,99.99
2023-05-12T05:26:13.884Z,99.99
2023-05-12T05:27:13.638Z,99.99
2023-05-12T05:28:13.631Z,99.99
2023-05-12T05:29:13.596Z,99.99
2023-05-12T05:30:14.565Z,99.99
2023-05-12T05:31:13.578Z,99.99
2023-05-12T05:32:13.593Z,99.99
2023-05-12T05:33:14.171Z,99.99
2023-05-12T05:34:13.558Z,99.99
2023-05-12T05:35:13.533Z,99.99
2023-05-12T05:36:13.557Z,99.99
2023-05-12T05:37:13.538Z,99.99
2023-05-12T05:38:13.494Z,99.99
2023-05-12T05:39:13.555Z,99.99
2023-05-12T05:40:13.491Z,99.99
2023-05-12T05:41:13.517Z,99.99
2023-05-12T05:42:13.514Z,99.99
2023-05-12T05:43:13.538Z,99.99
2023-05-12T05:44:13.457Z,99.99
2023-05-12T05:45:13.452Z,99.99
2023-05-12T05:46:13.470Z,99.99
2023-05-12T05:47:13.537Z,99.99
2023-05-12T05:48:13.481Z,99.99
2023-05-12T05:49:13.466Z,99.99
2023-05-12T05:50:13.456Z,99.99
2023-05-12T05:51:13.427Z,99.99
2023-05-12T05:52:14.435Z,99.99
2023-05-12T05:53:13.467Z,99.99
2023-05-12T05:54:14.298Z,99.99
2023-05-12T05:55:13.372Z,99.99
2023-05-12T05:56:14.300Z,99.99
2023-05-12T05:57:13.366Z,99.99
2023-05-12T05:58:13.386Z,99.99
2023-05-12T05:59:13.365Z,99.99
2023-05-12T06:00:13.355Z,99.99
2023-05-12T06:01:13.356Z,99.99
2023-05-12T06:02:13.432Z,99.99
2023-05-12T06:03:13.451Z,99.99
2023-05-12T06:04:13.350Z,99.99
2023-05-12T06:05:14.390Z,99.99
2023-05-12T06:06:14.323Z,99.99
2023-05-12T06:07:13.331Z,99.99
2023-05-12T06:08:13.496Z,99.99
2023-05-12T06:09:13.272Z,99.99
2023-05-12T06:10:13.290Z,99.99
2023-05-12T06:11:13.244Z,99.99
2023-05-12T06:12:13.249Z,99.99
2023-05-12T06:13:13.281Z,99.99
2023-05-12T06:14:13.249Z,99.99
2023-05-12T06:15:13.281Z,99.99
2023-05-12T06:16:13.231Z,99.99
2023-05-12T06:17:13.233Z,99.99
2023-05-12T06:18:13.292Z,99.71
2023-05-12T06:19:13.246Z,99.87
2023-05-12T06:20:13.235Z,99.56
2023-05-12T06:21:13.216Z,99.77
2023-05-12T06:22:13.162Z,99.46
2023-05-12T06:23:13.155Z,99.87
2023-05-12T06:24:13.166Z,98.95
2023-05-12T06:25:13.167Z,98.14
2023-05-12T06:26:13.195Z,99.21
2023-05-12T06:27:13.123Z,98.91
2023-05-12T06:28:13.112Z,98.91
2023-05-12T06:29:13.103Z,99.01
2023-05-12T06:30:15.075Z,98.85
2023-05-12T06:31:14.144Z,98.34
2023-05-12T06:32:13.134Z,98.54
2023-05-12T06:33:13.083Z,98.44
2023-05-12T06:34:13.124Z,98.91
2023-05-12T06:35:13.079Z,98.91
2023-05-12T06:36:13.058Z,98.80
2023-05-12T06:37:13.058Z,98.80
2023-05-12T06:38:13.077Z,98.19
2023-05-12T06:39:13.834Z,98.09
2023-05-12T06:40:13.024Z,98.60
2023-05-12T06:41:13.081Z,97.99
2023-05-12T06:42:13.043Z,98.19
2023-05-12T06:43:13.049Z,98.60
2023-05-12T06:44:12.989Z,99.11
2023-05-12T06:45:13.035Z,98.09
2023-05-12T06:46:13.020Z,98.50
2023-05-12T06:47:13.035Z,97.78
2023-05-12T06:48:12.984Z,98.30
2023-05-12T06:49:12.977Z,98.19
2023-05-12T06:50:12.934Z,98.39
2023-05-12T06:51:12.943Z,98.50
2023-05-12T06:52:12.952Z,97.48
2023-05-12T06:53:12.956Z,97.89
2023-05-12T06:54:12.920Z,98.30
2023-05-12T06:55:12.914Z,98.50
2023-05-12T06:56:12.967Z,98.30
2023-05-12T06:57:12.938Z,98.39
2023-05-12T06:58:12.924Z,98.25
2023-05-12T06:59:12.911Z,98.50
2023-05-12T07:00:12.863Z,98.50
2023-05-12T07:01:12.867Z,98.39
2023-05-12T07:02:12.902Z,98.45
2023-05-12T07:03:12.981Z,97.99
2023-05-12T07:04:12.983Z,98.09
2023-05-12T07:05:12.827Z,97.89
2023-05-12T07:06:12.865Z,98.30
2023-05-12T07:07:12.810Z,98.05
2023-05-12T07:08:12.837Z,97.94
2023-05-12T07:09:12.802Z,97.94
2023-05-12T07:10:12.830Z,97.74
2023-05-12T07:11:12.770Z,97.44
2023-05-12T07:12:12.778Z,97.33
2023-05-12T07:13:12.779Z,97.94
2023-05-12T07:14:12.742Z,98.45
2023-05-12T07:15:12.973Z,97.84
2023-05-12T07:16:12.800Z,97.84
2023-05-12T07:17:12.723Z,97.53
2023-05-12T07:18:12.768Z,97.64
2023-05-12T07:19:12.761Z,97.89
2023-05-12T07:20:12.761Z,97.13
2023-05-12T07:21:12.731Z,97.13
2023-05-12T07:22:14.144Z,97.23
2023-05-12T07:23:12.679Z,97.23
2023-05-12T07:24:12.716Z,96.98
2023-05-12T07:25:13.268Z,97.08
2023-05-12T07:26:12.701Z,97.39
2023-05-12T07:27:12.646Z,97.24
2023-05-12T07:28:12.632Z,96.02
2023-05-12T07:29:13.968Z,96.12
2023-05-12T07:30:13.670Z,95.41
2023-05-12T07:31:12.664Z,94.20
2023-05-12T07:32:12.621Z,94.56
2023-05-12T07:33:12.650Z,94.09
2023-05-12T07:34:12.594Z,93.74
2023-05-12T07:35:12.596Z,94.45
2023-05-12T07:36:12.627Z,93.64
2023-05-12T07:37:12.647Z,93.13
2023-05-12T07:38:12.566Z,93.29
2023-05-12T07:39:12.563Z,92.83
2023-05-12T07:40:12.560Z,92.63
2023-05-12T07:41:12.574Z,92.99
2023-05-12T07:42:12.592Z,93.09
2023-05-12T07:43:12.550Z,92.89
2023-05-12T07:44:12.561Z,92.79
2023-05-12T07:45:12.556Z,93.09
2023-05-12T07:46:12.534Z,93.09
2023-05-12T07:47:12.584Z,93.40
2023-05-12T07:48:12.515Z,92.58
2023-05-12T07:49:12.584Z,92.79
2023-05-12T07:50:12.481Z,92.99
2023-05-12T07:51:12.515Z,92.83
2023-05-12T07:52:12.559Z,93.13
2023-05-12T07:53:13.398Z,93.33
2023-05-12T07:54:13.361Z,93.13
2023-05-12T07:55:12.480Z,93.33
2023-05-12T07:56:12.438Z,93.19
2023-05-12T07:57:12.476Z,92.79
2023-05-12T07:58:12.468Z,93.74
2023-05-12T07:59:12.469Z,92.68
2023-05-12T08:00:12.405Z,92.68
2023-05-12T08:01:12.414Z,92.32
2023-05-12T08:02:12.448Z,92.18
2023-05-12T08:03:12.508Z,93.19
2023-05-12T08:04:12.449Z,92.58
2023-05-12T08:05:12.392Z,92.48
2023-05-12T08:06:12.360Z,92.58
2023-05-12T08:07:12.405Z,91.73
2023-05-12T08:08:12.417Z,91.42
2023-05-12T08:09:12.333Z,91.32
2023-05-12T08:10:12.362Z,91.99
2023-05-12T08:11:12.345Z,90.16
2023-05-12T08:12:12.338Z,90.36
2023-05-12T08:13:12.409Z,91.38
2023-05-12T08:14:12.309Z,91.08
2023-05-12T08:15:12.362Z,91.17
2023-05-12T08:16:12.287Z,90.97
2023-05-12T08:17:12.344Z,90.16
2023-05-12T08:18:12.346Z,90.06
2023-05-12T08:19:12.343Z,90.26
2023-05-12T08:20:12.300Z,91.17
2023-05-12T08:21:12.261Z,91.38
2023-05-12T08:22:12.302Z,91.34
2023-05-12T08:23:12.275Z,90.93
2023-05-12T08:24:12.226Z,89.61
2023-05-12T08:25:12.799Z,90.47
2023-05-12T08:26:13.280Z,91.13
2023-05-12T08:27:12.244Z,90.77
2023-05-12T08:28:12.200Z,90.02
2023-05-12T08:29:12.188Z,90.42
2023-05-12T08:30:12.165Z,90.53
2023-05-12T08:31:12.269Z,91.13
2023-05-12T08:32:12.196Z,90.57
2023-05-12T08:33:12.172Z,91.34
2023-05-12T08:34:12.157Z,91.34
2023-05-12T08:35:12.165Z,90.93
2023-05-12T08:36:12.161Z,91.85
2023-05-12T08:37:12.135Z,91.39
2023-05-12T08:38:12.161Z,90.08
2023-05-12T08:39:12.790Z,90.69
2023-05-12T08:40:12.114Z,90.99
2023-05-12T08:41:12.093Z,89.57
2023-05-12T08:42:12.071Z,90.18
2023-05-12T08:43:12.085Z,90.58
2023-05-12T08:44:12.087Z,89.32
2023-05-12T08:45:12.068Z,89.43
2023-05-12T08:46:12.086Z,89.06
2023-05-12T08:47:12.071Z,89.67
2023-05-12T08:48:12.090Z,89.73
2023-05-12T08:49:12.075Z,89.57
2023-05-12T08:50:12.046Z,89.61
2023-05-12T08:51:12.025Z,89.77
2023-05-12T08:52:12.018Z,89.37
2023-05-12T08:53:12.268Z,89.31
2023-05-12T08:54:12.015Z,88.76
2023-05-12T08:55:12.039Z,88.66
2023-05-12T08:57:12.971Z,88.11
2023-05-12T08:58:12.003Z,87.77
2023-05-12T08:59:11.957Z,88.01
2023-05-12T09:00:12.019Z,87.40
2023-05-12T09:01:12.041Z,87.91
2023-05-12T09:02:11.969Z,89.02
2023-05-12T09:03:11.936Z,88.68
2023-05-12T09:04:12.000Z,87.56
2023-05-12T09:05:11.934Z,86.16
2023-05-12T09:06:11.951Z,86.67
2023-05-12T09:07:11.907Z,85.31
2023-05-12T09:08:12.405Z,84.87
2023-05-12T09:09:11.913Z,83.26
2023-05-12T09:10:19.645Z,83.22
2023-05-12T09:11:13.851Z,82.87
2023-05-12T09:12:11.865Z,83.48
2023-05-12T09:13:11.855Z,83.07
2023-05-12T09:14:12.660Z,82.33
2023-05-12T09:15:11.910Z,81.68
2023-05-12T09:16:11.888Z,81.24
2023-05-12T09:17:11.823Z,79.93
2023-05-12T09:18:12.835Z,79.23
2023-05-12T09:19:11.887Z,80.01
2023-05-12T09:20:23.852Z,80.31
2023-05-12T09:21:13.769Z,81.28
2023-05-12T09:22:11.767Z,80.24
2023-05-12T09:23:11.946Z,79.43
2023-05-12T09:24:11.756Z,79.23
2023-05-12T09:25:13.415Z,79.33
2023-05-12T09:26:11.734Z,78.52
2023-05-12T09:27:11.738Z,79.43
2023-05-12T09:28:11.801Z,79.60
2023-05-12T09:29:15.773Z,78.35
2023-05-12T09:30:13.753Z,78.25
2023-05-12T09:31:14.576Z,77.75
2023-05-12T09:32:11.729Z,77.58
2023-05-12T09:33:11.776Z,79.83
2023-05-12T09:34:11.672Z,78.32
2023-05-12T09:35:11.701Z,79.50
2023-05-12T09:36:11.736Z,80.31
2023-05-12T09:38:11.644Z,79.19
2023-05-12T09:39:11.649Z,78.63
2023-05-12T09:40:11.684Z,79.53
2023-05-12T09:41:11.629Z,79.16
2023-05-12T09:42:11.713Z,77.11
2023-05-12T09:43:12.562Z,77.83
2023-05-12T09:44:11.609Z,76.89
2023-05-12T09:45:11.654Z,76.63
2023-05-12T09:46:11.685Z,77.83
2023-05-12T09:47:11.602Z,75.79
2023-05-12T09:48:11.631Z,75.62
2023-05-12T09:49:11.555Z,74.77
2023-05-12T09:50:11.589Z,74.31
2023-05-12T09:51:11.548Z,73.84
2023-05-12T09:52:11.550Z,74.24
2023-05-12T09:53:11.566Z,74.28
2023-05-12T09:54:11.569Z,74.31
2023-05-12T09:55:11.554Z,73.81
2023-05-12T09:56:12.353Z,73.47
2023-05-12T09:57:11.509Z,73.50
2023-05-12T09:58:11.536Z,72.27
2023-05-12T09:59:11.507Z,72.24
2023-05-12T10:00:29.758Z,72.74
2023-05-12T10:01:22.790Z,72.74
2023-05-12T10:02:13.506Z,73.07
2023-05-12T10:03:11.592Z,70.50
2023-05-12T10:04:11.523Z,73.19
2023-05-12T10:05:11.602Z,70.53
2023-05-12T10:06:11.438Z,69.86
2023-05-12T10:07:11.455Z,67.16
2023-05-12T10:08:12.408Z,68.55
2023-05-12T10:09:11.456Z,68.55
2023-05-12T10:10:11.420Z,69.39
2023-05-12T10:11:11.446Z,68.46
2023-05-12T10:12:11.431Z,71.56
2023-05-12T10:13:11.387Z,72.50
2023-05-12T10:14:12.291Z,73.71
2023-05-12T10:15:12.073Z,69.06
2023-05-12T10:16:11.375Z,70.32
2023-05-12T10:17:11.526Z,68.89
2023-05-12T10:18:11.442Z,67.22
2023-05-12T10:19:11.414Z,64.15
2023-05-12T10:20:11.425Z,63.26
2023-05-12T10:21:11.348Z,63.19
2023-05-12T10:22:11.344Z,62.65
2023-05-12T10:23:11.389Z,62.34
2023-05-12T10:24:11.324Z,64.04
2023-05-12T10:25:11.358Z,65.05
2023-05-12T10:26:12.214Z,65.98
2023-05-12T10:27:11.365Z,65.65
2023-05-12T10:28:12.275Z,65.19
2023-05-12T10:29:11.318Z,64.86
2023-05-12T10:30:11.393Z,64.39
2023-05-12T10:31:11.421Z,63.32
2023-05-12T10:32:11.269Z,63.65
2023-05-12T10:33:11.264Z,64.15
2023-05-12T10:34:11.276Z,64.89
2023-05-12T10:35:11.263Z,63.61
2023-05-12T10:36:11.291Z,63.42
2023-05-12T10:37:11.538Z,64.45
2023-05-12T10:38:11.275Z,65.42
2023-05-12T10:39:11.226Z,64.22
2023-05-12T10:40:11.262Z,64.06
2023-05-12T10:41:11.261Z,64.01
2023-05-12T10:42:11.271Z,63.51
2023-05-12T10:43:11.206Z,62.72
2023-05-12T10:44:11.266Z,63.56
2023-05-12T10:45:11.253Z,62.30
2023-05-12T10:46:12.236Z,59.47
2023-05-12T10:47:13.096Z,63.95
2023-05-12T10:48:11.238Z,64.65
2023-05-12T10:49:11.152Z,64.15
2023-05-12T10:50:11.167Z,64.98
2023-05-12T10:51:11.179Z,64.84
2023-05-12T10:52:11.158Z,67.05
2023-05-12T10:53:11.143Z,66.91
2023-05-12T10:54:11.101Z,68.52
2023-05-12T10:55:11.180Z,68.82
2023-05-12T10:56:11.171Z,67.55
2023-05-12T10:57:12.321Z,66.02
2023-05-12T10:58:11.599Z,66.38
2023-05-12T10:59:11.309Z,67.52
2023-05-12T11:00:11.510Z,67.22
2023-05-12T11:01:11.835Z,67.14
2023-05-12T11:02:12.285Z,68.45
2023-05-12T11:03:11.746Z,68.45
2023-05-12T11:04:11.232Z,68.42
2023-05-12T11:05:11.218Z,68.76
2023-05-12T11:06:11.141Z,69.26
2023-05-12T11:07:12.013Z,69.02
2023-05-12T11:08:12.092Z,67.25
2023-05-12T11:09:11.277Z,67.28
2023-05-12T11:10:11.153Z,68.65
2023-05-12T11:11:11.134Z,69.49
2023-05-12T11:12:11.976Z,70.43
2023-05-12T11:13:10.989Z,70.23
2023-05-12T11:14:11.010Z,71.43
2023-05-12T11:15:11.095Z,71.20
2023-05-12T11:16:10.953Z,69.99
2023-05-12T11:17:10.990Z,70.89
2023-05-12T11:18:10.986Z,72.54
2023-05-12T11:19:11.038Z,72.94
2023-05-12T11:20:10.938Z,72.54
2023-05-12T11:21:10.915Z,72.64
2023-05-12T11:22:10.912Z,71.13
2023-05-12T11:23:11.924Z,71.20
2023-05-12T11:24:13.468Z,70.79
2023-05-12T11:25:11.009Z,70.59
2023-05-12T11:26:10.889Z,70.63
2023-05-12T11:27:10.869Z,71.06
2023-05-12T11:28:10.922Z,71.47
2023-05-12T11:29:10.859Z,71.97
2023-05-12T11:30:10.914Z,72.61
2023-05-12T11:31:10.833Z,72.94
2023-05-12T11:32:10.890Z,72.64
2023-05-12T11:33:10.893Z,71.80
2023-05-12T11:34:13.077Z,69.76
2023-05-12T11:35:11.859Z,70.59
2023-05-12T11:36:10.849Z,71.43
2023-05-12T11:37:10.804Z,72.64
2023-05-12T11:38:11.427Z,72.71
2023-05-12T11:39:10.803Z,72.20
2023-05-12T11:40:10.816Z,70.93
2023-05-12T11:41:11.453Z,72.34
2023-05-12T11:42:13.598Z,72.50
2023-05-12T11:43:11.769Z,72.54
2023-05-12T11:44:10.744Z,72.30
2023-05-12T11:45:10.706Z,71.60
2023-05-12T11:46:10.712Z,72.61
2023-05-12T11:47:10.725Z,72.61
2023-05-12T11:48:10.692Z,71.26
2023-05-12T11:49:10.660Z,72.03
2023-05-12T11:50:10.638Z,70.23
2023-05-12T11:51:10.782Z,68.62
2023-05-12T11:52:11.297Z,66.71
2023-05-12T11:53:10.692Z,68.59
2023-05-12T11:54:10.655Z,68.85
2023-05-12T11:55:10.656Z,65.51
2023-05-12T11:56:10.647Z,64.51
2023-05-12T11:57:10.594Z,65.04
2023-05-12T11:58:10.632Z,65.31
2023-05-12T11:59:10.657Z,66.11
2023-05-12T12:00:10.611Z,65.58
2023-05-12T12:01:10.684Z,65.35
2023-05-12T12:02:10.636Z,66.62
2023-05-12T12:03:10.832Z,64.95
2023-05-12T12:04:10.653Z,65.98
2023-05-12T12:05:10.590Z,66.78
2023-05-12T12:06:10.595Z,67.18
2023-05-12T12:07:10.587Z,67.42
2023-05-12T12:08:10.600Z,68.92
2023-05-12T12:09:10.560Z,70.86
2023-05-12T12:10:10.587Z,72.56
2023-05-12T12:11:10.664Z,73.27
2023-05-12T12:12:10.755Z,73.91
2023-05-12T12:13:10.570Z,74.71
2023-05-12T12:14:10.565Z,75.75
2023-05-12T12:15:10.491Z,76.86
2023-05-12T12:16:12.317Z,75.99
2023-05-12T12:17:10.514Z,76.39
2023-05-12T12:18:10.555Z,77.00
2023-05-12T12:19:11.447Z,76.19
2023-05-12T12:20:11.508Z,76.53
2023-05-12T12:21:10.462Z,76.87
2023-05-12T12:22:10.453Z,78.11
2023-05-12T12:23:10.462Z,77.61
2023-05-12T12:24:10.453Z,77.91
2023-05-12T12:25:10.849Z,77.61
2023-05-12T12:26:10.466Z,77.11
2023-05-12T12:27:10.444Z,76.54
2023-05-12T12:28:10.428Z,77.20
2023-05-12T12:29:10.411Z,76.90
2023-05-12T12:30:10.439Z,76.50
2023-05-12T12:31:10.561Z,76.94
2023-05-12T12:32:10.381Z,76.64
2023-05-12T12:33:10.416Z,76.54
2023-05-12T12:34:10.366Z,76.77
2023-05-12T12:35:10.975Z,77.68
2023-05-12T12:36:10.331Z,76.81
2023-05-12T12:37:10.339Z,75.94
2023-05-12T12:38:10.306Z,74.76
2023-05-12T12:39:10.301Z,75.74
2023-05-12T12:40:10.438Z,78.00
2023-05-12T12:41:10.319Z,77.97
2023-05-12T12:42:10.324Z,79.49
2023-05-12T12:43:10.277Z,78.99
2023-05-12T12:44:10.453Z,79.53
2023-05-12T12:45:10.310Z,78.92
2023-05-12T12:46:10.260Z,78.92
2023-05-12T12:47:10.472Z,79.16
2023-05-12T12:48:10.351Z,80.13
2023-05-12T12:49:10.251Z,80.54
2023-05-12T12:50:10.367Z,80.54
2023-05-12T12:51:10.212Z,80.94
2023-05-12T12:52:10.198Z,81.55
2023-05-12T12:53:10.247Z,81.76
2023-05-12T12:54:10.228Z,82.83
2023-05-12T12:55:10.232Z,82.28
2023-05-12T12:56:10.186Z,83.33
2023-05-12T12:57:10.157Z,83.40
2023-05-12T12:58:10.172Z,82.62
2023-05-12T12:59:10.147Z,82.93
2023-05-12T13:00:10.155Z,83.09
2023-05-12T13:01:10.216Z,81.92
2023-05-12T13:02:10.152Z,82.22
2023-05-12T13:03:10.181Z,81.37
2023-05-12T13:04:10.124Z,81.98
2023-05-12T13:05:10.127Z,80.57
2023-05-12T13:06:10.109Z,79.05
2023-05-12T13:07:10.180Z,79.05
2023-05-12T13:08:10.160Z,78.10
2023-05-12T13:09:10.110Z,78.00
2023-05-12T13:10:10.186Z,77.50